BAW738 EGLL-EDDF
Flight info
| Callsign | BAW738 |
|---|---|
| Flight time | 1h 3m |
| Altitude | 35000 |
| Route | BPK Q295 MATCH DCT REDFA DCT TACHA DCT NOLRU DCT DIXAT DIXAT1A |
| Aircraft | B772/H-SDE2E3FGHIJ5LORVWXY/LB1D1 |
Departure
| Time | 2026-05-05 09:26 |
|---|---|
| Airport | London Heathrow Airport (EGLL) |
Arrival
| Time | 2026-05-05 10:29 |
|---|---|
| Airport | Frankfurt Main Airport (EDDF) |
| Time | Latitude | Longitude | Altitude | Speed | Heading |
|---|---|---|---|---|---|
| 2026-05-05 09:02 | 51.47132 | -0.48014 | 94 ft | 0 kts | 269° |
| 2026-05-05 09:14 | 51.47132 | -0.48013 | 94 ft | 0 kts | 269° |
| 2026-05-05 09:15 | 51.47133 | -0.48006 | 94 ft | 3 kts | 269° |
| 2026-05-05 09:15 | 51.47133 | -0.47975 | 95 ft | 3 kts | 269° |
| 2026-05-05 09:15 | 51.47133 | -0.47944 | 93 ft | 3 kts | 275° |
| 2026-05-05 09:15 | 51.47133 | -0.47940 | 93 ft | 0 kts | 281° |
| 2026-05-05 09:16 | 51.47132 | -0.47915 | 94 ft | 3 kts | 248° |
| 2026-05-05 09:16 | 51.47143 | -0.47891 | 92 ft | 3 kts | 205° |
| 2026-05-05 09:16 | 51.47157 | -0.47884 | 94 ft | 0 kts | 178° |
| 2026-05-05 09:20 | 51.47156 | -0.47884 | 94 ft | 1 kts | 178° |
| 2026-05-05 09:20 | 51.47105 | -0.47873 | 94 ft | 12 kts | 174° |
| 2026-05-05 09:20 | 51.47018 | -0.47868 | 95 ft | 12 kts | 180° |
| 2026-05-05 09:20 | 51.46932 | -0.47868 | 94 ft | 12 kts | 180° |
| 2026-05-05 09:21 | 51.46844 | -0.47867 | 93 ft | 12 kts | 180° |
| 2026-05-05 09:21 | 51.46757 | -0.47866 | 95 ft | 12 kts | 180° |
| 2026-05-05 09:21 | 51.46674 | -0.47892 | 95 ft | 12 kts | 220° |
| 2026-05-05 09:21 | 51.46653 | -0.48025 | 95 ft | 12 kts | 269° |
| 2026-05-05 09:22 | 51.46653 | -0.48165 | 97 ft | 13 kts | 270° |
| 2026-05-05 09:22 | 51.46653 | -0.48322 | 98 ft | 15 kts | 269° |
| 2026-05-05 09:22 | 51.46652 | -0.48474 | 99 ft | 12 kts | 269° |
| 2026-05-05 09:22 | 51.46651 | -0.48529 | 99 ft | 0 kts | 270° |
| 2026-05-05 09:23 | 51.46651 | -0.48562 | 100 ft | 6 kts | 270° |
| 2026-05-05 09:23 | 51.46651 | -0.48656 | 98 ft | 9 kts | 268° |
| 2026-05-05 09:24 | 51.46618 | -0.48742 | 100 ft | 10 kts | 217° |
| 2026-05-05 09:24 | 51.46554 | -0.48774 | 98 ft | 10 kts | 185° |
| 2026-05-05 09:24 | 51.46496 | -0.48728 | 99 ft | 10 kts | 126° |
| 2026-05-05 09:24 | 51.46478 | -0.48638 | 98 ft | 5 kts | 91° |
| 2026-05-05 09:25 | 51.46478 | -0.48631 | 99 ft | 0 kts | 89° |
| 2026-05-05 09:26 | 51.46479 | -0.48483 | 98 ft | 55 kts | 89° |
| 2026-05-05 09:26 | 51.46486 | -0.47202 | 98 ft | 171 kts | 89° |
| 2026-05-05 09:26 | 51.46481 | -0.44935 | 671 ft | 224 kts | 85° |
| 2026-05-05 09:26 | 51.46651 | -0.42484 | 2436 ft | 220 kts | 73° |
| 2026-05-05 09:27 | 51.47113 | -0.40071 | 4292 ft | 234 kts | 73° |
| 2026-05-05 09:27 | 51.47552 | -0.37543 | 5744 ft | 238 kts | 67° |
| 2026-05-05 09:27 | 51.48542 | -0.35221 | 6171 ft | 268 kts | 45° |
| 2026-05-05 09:27 | 51.49858 | -0.33073 | 7206 ft | 271 kts | 49° |
| 2026-05-05 09:28 | 51.50957 | -0.30744 | 8858 ft | 249 kts | 53° |
| 2026-05-05 09:28 | 51.51979 | -0.28565 | 10329 ft | 239 kts | 49° |
| 2026-05-05 09:28 | 51.53130 | -0.26615 | 11224 ft | 245 kts | 42° |
| 2026-05-05 09:28 | 51.54430 | -0.24727 | 11891 ft | 260 kts | 41° |
| 2026-05-05 09:29 | 51.55854 | -0.22812 | 12698 ft | 272 kts | 37° |
| 2026-05-05 09:29 | 51.57339 | -0.20869 | 13612 ft | 280 kts | 42° |
| 2026-05-05 09:29 | 51.58829 | -0.18740 | 14351 ft | 291 kts | 38° |
| 2026-05-05 09:29 | 51.60567 | -0.17044 | 15069 ft | 299 kts | 21° |
| 2026-05-05 09:30 | 51.62597 | -0.16071 | 15822 ft | 310 kts | 14° |
| 2026-05-05 09:30 | 51.64681 | -0.15236 | 16655 ft | 318 kts | 14° |
| 2026-05-05 09:30 | 51.66840 | -0.14377 | 17515 ft | 325 kts | 14° |
| 2026-05-05 09:30 | 51.69063 | -0.13481 | 18418 ft | 332 kts | 14° |
| 2026-05-05 09:31 | 51.71334 | -0.12531 | 19163 ft | 340 kts | 15° |
| 2026-05-05 09:31 | 51.73534 | -0.11253 | 19871 ft | 338 kts | 32° |
| 2026-05-05 09:31 | 51.75193 | -0.08609 | 20585 ft | 340 kts | 62° |
| 2026-05-05 09:31 | 51.75982 | -0.05031 | 21299 ft | 339 kts | 82° |
| 2026-05-05 09:32 | 51.76280 | -0.01234 | 22010 ft | 344 kts | 85° |
| 2026-05-05 09:32 | 51.76506 | 0.02640 | 22742 ft | 349 kts | 87° |
| 2026-05-05 09:32 | 51.76719 | 0.06575 | 23454 ft | 354 kts | 87° |
| 2026-05-05 09:32 | 51.76941 | 0.10477 | 24027 ft | 358 kts | 86° |
| 2026-05-05 09:33 | 51.77183 | 0.14522 | 24506 ft | 368 kts | 86° |
| 2026-05-05 09:33 | 51.77438 | 0.18750 | 24631 ft | 390 kts | 86° |
| 2026-05-05 09:33 | 51.77738 | 0.23227 | 24774 ft | 412 kts | 84° |
| 2026-05-05 09:33 | 51.78285 | 0.27876 | 25048 ft | 431 kts | 78° |
| 2026-05-05 09:34 | 51.79056 | 0.32620 | 25539 ft | 442 kts | 77° |
| 2026-05-05 09:34 | 51.79850 | 0.37465 | 26143 ft | 448 kts | 77° |
| 2026-05-05 09:34 | 51.80646 | 0.42342 | 26815 ft | 452 kts | 77° |
| 2026-05-05 09:34 | 51.81449 | 0.47314 | 27402 ft | 459 kts | 77° |
| 2026-05-05 09:35 | 51.82254 | 0.52349 | 27870 ft | 467 kts | 77° |
| 2026-05-05 09:35 | 51.83880 | 0.62626 | 29043 ft | 476 kts | 78° |
| 2026-05-05 09:35 | 51.84698 | 0.67835 | 29641 ft | 479 kts | 78° |
| 2026-05-05 09:36 | 51.85518 | 0.73079 | 30140 ft | 484 kts | 78° |
| 2026-05-05 09:36 | 51.86346 | 0.78391 | 30575 ft | 487 kts | 78° |
| 2026-05-05 09:36 | 51.86894 | 0.81915 | 30904 ft | 488 kts | 78° |
| 2026-05-05 09:36 | 51.87722 | 0.87253 | 31410 ft | 489 kts | 77° |
| 2026-05-05 09:37 | 51.88549 | 0.92599 | 31893 ft | 490 kts | 77° |
| 2026-05-05 09:37 | 51.89645 | 0.99715 | 32392 ft | 494 kts | 77° |
| 2026-05-05 09:37 | 51.90205 | 1.03370 | 32602 ft | 496 kts | 77° |
| 2026-05-05 09:37 | 51.91036 | 1.08796 | 33027 ft | 496 kts | 77° |
| 2026-05-05 09:38 | 51.91857 | 1.14175 | 33623 ft | 493 kts | 77° |
| 2026-05-05 09:38 | 51.92677 | 1.19566 | 34216 ft | 489 kts | 77° |
| 2026-05-05 09:38 | 51.93488 | 1.24917 | 34667 ft | 488 kts | 77° |
| 2026-05-05 09:38 | 51.94291 | 1.30235 | 34996 ft | 490 kts | 77° |
| 2026-05-05 09:39 | 51.95918 | 1.41067 | 34980 ft | 493 kts | 77° |
| 2026-05-05 09:39 | 51.97518 | 1.51788 | 34976 ft | 488 kts | 77° |
| 2026-05-05 09:40 | 51.99103 | 1.62487 | 34982 ft | 489 kts | 77° |
| 2026-05-05 09:40 | 52.00688 | 1.73252 | 34984 ft | 490 kts | 77° |
| 2026-05-05 09:41 | 52.02250 | 1.83945 | 34981 ft | 491 kts | 77° |
| 2026-05-05 09:41 | 52.03826 | 1.94797 | 34987 ft | 490 kts | 78° |
| 2026-05-05 09:42 | 52.05371 | 2.05513 | 34978 ft | 490 kts | 78° |
| 2026-05-05 09:42 | 52.06914 | 2.16300 | 34978 ft | 490 kts | 78° |
| 2026-05-05 09:43 | 52.08444 | 2.27067 | 34980 ft | 490 kts | 78° |
| 2026-05-05 09:43 | 52.09969 | 2.37863 | 34977 ft | 490 kts | 78° |
| 2026-05-05 09:44 | 52.11495 | 2.48673 | 34964 ft | 491 kts | 77° |
| 2026-05-05 09:44 | 52.13447 | 2.59361 | 34984 ft | 494 kts | 73° |
| 2026-05-05 09:45 | 52.15506 | 2.69984 | 34982 ft | 496 kts | 73° |
| 2026-05-05 09:45 | 52.17549 | 2.80717 | 34979 ft | 496 kts | 74° |
| 2026-05-05 09:46 | 52.19562 | 2.91464 | 34975 ft | 496 kts | 74° |
| 2026-05-05 09:46 | 52.21562 | 3.02223 | 34969 ft | 496 kts | 73° |
| 2026-05-05 09:47 | 52.23564 | 3.13025 | 34978 ft | 497 kts | 74° |
| 2026-05-05 09:47 | 52.24667 | 3.24048 | 34981 ft | 492 kts | 95° |
| 2026-05-05 09:48 | 52.23220 | 3.34812 | 34961 ft | 483 kts | 114° |
| 2026-05-05 09:48 | 52.20668 | 3.45008 | 34975 ft | 488 kts | 114° |
| 2026-05-05 09:49 | 52.18126 | 3.55320 | 34972 ft | 491 kts | 114° |
| 2026-05-05 09:49 | 52.15601 | 3.65720 | 34969 ft | 492 kts | 114° |
| 2026-05-05 09:50 | 52.13116 | 3.75988 | 34957 ft | 491 kts | 114° |
| 2026-05-05 09:50 | 52.10603 | 3.86324 | 34955 ft | 490 kts | 114° |
| 2026-05-05 09:51 | 52.08088 | 3.96611 | 34935 ft | 490 kts | 115° |
| 2026-05-05 09:51 | 52.05560 | 4.06896 | 34948 ft | 490 kts | 115° |
| 2026-05-05 09:52 | 52.03020 | 4.17179 | 34940 ft | 490 kts | 115° |
| 2026-05-05 09:52 | 52.00471 | 4.27449 | 34940 ft | 491 kts | 115° |
| 2026-05-05 09:53 | 51.97906 | 4.37738 | 34941 ft | 491 kts | 115° |
| 2026-05-05 09:53 | 51.95337 | 4.47999 | 34927 ft | 490 kts | 115° |
| 2026-05-05 09:54 | 51.92776 | 4.58181 | 34948 ft | 488 kts | 115° |
| 2026-05-05 09:54 | 51.90213 | 4.68324 | 34935 ft | 487 kts | 116° |
| 2026-05-05 09:55 | 51.87637 | 4.78468 | 34928 ft | 487 kts | 116° |
| 2026-05-05 09:55 | 51.85054 | 4.88596 | 34926 ft | 487 kts | 116° |
| 2026-05-05 09:56 | 51.82478 | 4.98651 | 34930 ft | 487 kts | 116° |
| 2026-05-05 09:56 | 51.79876 | 5.08761 | 34941 ft | 487 kts | 116° |
| 2026-05-05 09:57 | 51.77271 | 5.18839 | 34936 ft | 487 kts | 116° |
| 2026-05-05 09:57 | 51.74657 | 5.28907 | 34930 ft | 487 kts | 117° |
| 2026-05-05 09:58 | 51.72032 | 5.38975 | 34926 ft | 487 kts | 117° |
| 2026-05-05 09:58 | 51.69402 | 5.49016 | 34934 ft | 486 kts | 117° |
| 2026-05-05 09:59 | 51.66755 | 5.59086 | 34924 ft | 486 kts | 118° |
| 2026-05-05 09:59 | 51.64128 | 5.69028 | 34936 ft | 484 kts | 118° |
| 2026-05-05 10:00 | 51.61495 | 5.78943 | 34930 ft | 483 kts | 118° |
| 2026-05-05 10:00 | 51.58852 | 5.88852 | 34935 ft | 483 kts | 118° |
| 2026-05-05 10:01 | 51.56195 | 5.98782 | 34916 ft | 484 kts | 118° |
| 2026-05-05 10:01 | 51.53513 | 6.08760 | 34913 ft | 485 kts | 118° |
| 2026-05-05 10:02 | 51.50847 | 6.18642 | 34913 ft | 485 kts | 119° |
| 2026-05-05 10:02 | 51.48230 | 6.28686 | 34894 ft | 487 kts | 117° |
| 2026-05-05 10:03 | 51.45781 | 6.38857 | 34905 ft | 489 kts | 116° |
| 2026-05-05 10:03 | 51.43342 | 6.48949 | 34903 ft | 490 kts | 117° |
| 2026-05-05 10:04 | 51.40829 | 6.59160 | 34888 ft | 490 kts | 117° |
| 2026-05-05 10:04 | 51.38321 | 6.69257 | 34890 ft | 489 kts | 117° |
| 2026-05-05 10:05 | 51.35805 | 6.79341 | 34868 ft | 489 kts | 116° |
| 2026-05-05 10:05 | 51.33272 | 6.89454 | 34884 ft | 489 kts | 117° |
| 2026-05-05 10:06 | 51.30739 | 6.99530 | 34884 ft | 489 kts | 117° |
| 2026-05-05 10:06 | 51.28110 | 7.09518 | 34880 ft | 482 kts | 124° |
| 2026-05-05 10:07 | 51.26198 | 7.13848 | 34879 ft | 472 kts | 137° |
| 2026-05-05 10:07 | 51.23826 | 7.17349 | 34867 ft | 466 kts | 148° |
| 2026-05-05 10:07 | 51.18232 | 7.22318 | 34886 ft | 461 kts | 159° |
| 2026-05-05 10:08 | 51.15373 | 7.24588 | 34660 ft | 457 kts | 158° |
| 2026-05-05 10:08 | 51.12568 | 7.26837 | 34151 ft | 457 kts | 158° |
| 2026-05-05 10:08 | 51.09724 | 7.29135 | 33886 ft | 456 kts | 158° |
| 2026-05-05 10:08 | 51.06904 | 7.31432 | 33823 ft | 451 kts | 158° |
| 2026-05-05 10:09 | 51.04156 | 7.33675 | 33705 ft | 448 kts | 158° |
| 2026-05-05 10:09 | 51.01381 | 7.35939 | 33494 ft | 447 kts | 158° |
| 2026-05-05 10:09 | 50.98603 | 7.38203 | 33224 ft | 446 kts | 158° |
| 2026-05-05 10:09 | 50.95842 | 7.40451 | 33009 ft | 446 kts | 158° |
| 2026-05-05 10:10 | 50.93103 | 7.42678 | 32794 ft | 445 kts | 158° |
| 2026-05-05 10:10 | 50.90378 | 7.44896 | 32447 ft | 433 kts | 158° |
| 2026-05-05 10:10 | 50.87708 | 7.47068 | 31682 ft | 428 kts | 158° |
| 2026-05-05 10:10 | 50.85074 | 7.49201 | 30807 ft | 427 kts | 157° |
| 2026-05-05 10:11 | 50.82409 | 7.51353 | 29898 ft | 427 kts | 156° |
| 2026-05-05 10:11 | 50.79757 | 7.53493 | 28935 ft | 425 kts | 156° |
| 2026-05-05 10:11 | 50.77131 | 7.55611 | 28156 ft | 420 kts | 156° |
| 2026-05-05 10:11 | 50.74579 | 7.57670 | 27476 ft | 415 kts | 156° |
| 2026-05-05 10:12 | 50.72023 | 7.59730 | 26803 ft | 409 kts | 156° |
| 2026-05-05 10:12 | 50.69489 | 7.61767 | 26148 ft | 405 kts | 156° |
| 2026-05-05 10:12 | 50.66978 | 7.63784 | 25486 ft | 399 kts | 156° |
| 2026-05-05 10:12 | 50.64557 | 7.65727 | 24724 ft | 391 kts | 155° |
| 2026-05-05 10:13 | 50.62134 | 7.67668 | 23755 ft | 388 kts | 155° |
| 2026-05-05 10:13 | 50.59739 | 7.69583 | 22798 ft | 383 kts | 155° |
| 2026-05-05 10:13 | 50.57396 | 7.71457 | 21845 ft | 377 kts | 155° |
| 2026-05-05 10:13 | 50.55093 | 7.73296 | 20941 ft | 372 kts | 155° |
| 2026-05-05 10:14 | 50.52794 | 7.75130 | 20049 ft | 368 kts | 155° |
| 2026-05-05 10:14 | 50.50518 | 7.76944 | 19190 ft | 364 kts | 155° |
| 2026-05-05 10:14 | 50.48256 | 7.78744 | 18372 ft | 361 kts | 155° |
| 2026-05-05 10:14 | 50.46020 | 7.80497 | 17547 ft | 356 kts | 158° |
| 2026-05-05 10:15 | 50.43750 | 7.81871 | 16702 ft | 351 kts | 159° |
| 2026-05-05 10:15 | 50.41650 | 7.83810 | 15853 ft | 352 kts | 143° |
| 2026-05-05 10:15 | 50.39977 | 7.86588 | 15095 ft | 352 kts | 129° |
| 2026-05-05 10:15 | 50.38617 | 7.89762 | 14386 ft | 349 kts | 125° |
| 2026-05-05 10:16 | 50.37360 | 7.92984 | 13687 ft | 345 kts | 123° |
| 2026-05-05 10:16 | 50.36125 | 7.96198 | 12959 ft | 341 kts | 123° |
| 2026-05-05 10:16 | 50.34914 | 7.99349 | 12259 ft | 337 kts | 123° |
| 2026-05-05 10:16 | 50.33696 | 8.02507 | 11751 ft | 340 kts | 123° |
| 2026-05-05 10:17 | 50.32487 | 8.05635 | 11541 ft | 336 kts | 123° |
| 2026-05-05 10:17 | 50.31276 | 8.08763 | 11300 ft | 333 kts | 123° |
| 2026-05-05 10:17 | 50.30079 | 8.11848 | 11013 ft | 331 kts | 123° |
| 2026-05-05 10:17 | 50.28880 | 8.14932 | 10700 ft | 330 kts | 123° |
| 2026-05-05 10:18 | 50.27700 | 8.17959 | 10415 ft | 329 kts | 123° |
| 2026-05-05 10:18 | 50.26512 | 8.20994 | 10157 ft | 327 kts | 123° |
| 2026-05-05 10:18 | 50.25316 | 8.24044 | 9870 ft | 325 kts | 123° |
| 2026-05-05 10:18 | 50.24374 | 8.27203 | 9553 ft | 327 kts | 106° |
| 2026-05-05 10:19 | 50.24046 | 8.30724 | 9250 ft | 327 kts | 96° |
| 2026-05-05 10:19 | 50.23914 | 8.34259 | 9002 ft | 324 kts | 94° |
| 2026-05-05 10:19 | 50.23820 | 8.37754 | 8774 ft | 323 kts | 94° |
| 2026-05-05 10:19 | 50.23730 | 8.41274 | 8578 ft | 323 kts | 94° |
| 2026-05-05 10:20 | 50.23645 | 8.44791 | 8338 ft | 323 kts | 94° |
| 2026-05-05 10:20 | 50.23562 | 8.48233 | 8112 ft | 322 kts | 93° |
| 2026-05-05 10:20 | 50.23479 | 8.51726 | 7883 ft | 321 kts | 94° |
| 2026-05-05 10:20 | 50.23400 | 8.55176 | 7650 ft | 319 kts | 93° |
| 2026-05-05 10:21 | 50.23322 | 8.58645 | 7425 ft | 318 kts | 93° |
| 2026-05-05 10:21 | 50.23270 | 8.60930 | 7342 ft | 316 kts | 94° |
| 2026-05-05 10:21 | 50.23167 | 8.65455 | 7109 ft | 313 kts | 94° |
| 2026-05-05 10:21 | 50.23091 | 8.68873 | 6983 ft | 313 kts | 94° |
| 2026-05-05 10:22 | 50.23016 | 8.72270 | 6918 ft | 313 kts | 94° |
| 2026-05-05 10:22 | 50.22942 | 8.75631 | 6743 ft | 308 kts | 94° |
| 2026-05-05 10:22 | 50.22893 | 8.77839 | 6409 ft | 305 kts | 94° |
| 2026-05-05 10:22 | 50.22795 | 8.82216 | 5374 ft | 303 kts | 93° |
| 2026-05-05 10:23 | 50.22742 | 8.84420 | 4834 ft | 301 kts | 94° |
| 2026-05-05 10:23 | 50.22313 | 8.87554 | 4340 ft | 293 kts | 116° |
| 2026-05-05 10:23 | 50.21131 | 8.89935 | 4112 ft | 266 kts | 144° |
| 2026-05-05 10:23 | 50.19551 | 8.91127 | 4007 ft | 237 kts | 163° |
| 2026-05-05 10:24 | 50.18041 | 8.91855 | 3990 ft | 225 kts | 163° |
| 2026-05-05 10:24 | 50.16544 | 8.92581 | 4006 ft | 231 kts | 163° |
| 2026-05-05 10:24 | 50.14989 | 8.93269 | 4011 ft | 233 kts | 171° |
| 2026-05-05 10:24 | 50.13391 | 8.93016 | 4008 ft | 232 kts | 203° |
| 2026-05-05 10:25 | 50.12173 | 8.91447 | 3992 ft | 232 kts | 236° |
| 2026-05-05 10:25 | 50.11414 | 8.89206 | 4011 ft | 238 kts | 244° |
| 2026-05-05 10:25 | 50.10755 | 8.86871 | 3997 ft | 228 kts | 247° |
| 2026-05-05 10:25 | 50.10204 | 8.84627 | 3844 ft | 214 kts | 249° |
| 2026-05-05 10:26 | 50.09713 | 8.82558 | 3558 ft | 202 kts | 249° |
| 2026-05-05 10:26 | 50.09232 | 8.80531 | 3321 ft | 197 kts | 249° |
| 2026-05-05 10:26 | 50.08761 | 8.78553 | 3054 ft | 197 kts | 249° |
| 2026-05-05 10:26 | 50.08284 | 8.76556 | 2785 ft | 198 kts | 249° |
| 2026-05-05 10:27 | 50.07805 | 8.74550 | 2515 ft | 198 kts | 249° |
| 2026-05-05 10:27 | 50.07325 | 8.72538 | 2254 ft | 198 kts | 250° |
| 2026-05-05 10:27 | 50.06847 | 8.70535 | 1994 ft | 197 kts | 250° |
| 2026-05-05 10:27 | 50.06378 | 8.68574 | 1732 ft | 196 kts | 249° |
| 2026-05-05 10:28 | 50.05902 | 8.66579 | 1464 ft | 195 kts | 249° |
| 2026-05-05 10:28 | 50.05443 | 8.64662 | 1200 ft | 180 kts | 250° |
| 2026-05-05 10:28 | 50.05026 | 8.62917 | 982 ft | 167 kts | 250° |
| 2026-05-05 10:28 | 50.04628 | 8.61251 | 781 ft | 162 kts | 250° |
| 2026-05-05 10:29 | 50.04235 | 8.59595 | 570 ft | 164 kts | 250° |
| 2026-05-05 10:29 | 50.03847 | 8.58009 | 393 ft | 141 kts | 250° |
| 2026-05-05 10:29 | 50.03566 | 8.56817 | 365 ft | 69 kts | 249° |
| 2026-05-05 10:29 | 50.03449 | 8.56321 | 367 ft | 39 kts | 252° |
| 2026-05-05 10:30 | 50.03442 | 8.56022 | 365 ft | 20 kts | 280° |
| 2026-05-05 10:30 | 50.03446 | 8.55985 | 363 ft | 0 kts | 280° |
| 2026-05-05 10:31 | 50.03447 | 8.55979 | 365 ft | 3 kts | 280° |
| 2026-05-05 10:31 | 50.03452 | 8.55935 | 362 ft | 7 kts | 280° |
| 2026-05-05 10:31 | 50.03463 | 8.55836 | 365 ft | 11 kts | 280° |
| 2026-05-05 10:31 | 50.03494 | 8.55726 | 363 ft | 11 kts | 324° |
| 2026-05-05 10:32 | 50.03559 | 8.55767 | 361 ft | 11 kts | 57° |
| 2026-05-05 10:32 | 50.03591 | 8.55878 | 366 ft | 11 kts | 68° |
| 2026-05-05 10:32 | 50.03619 | 8.55993 | 370 ft | 11 kts | 69° |
| 2026-05-05 10:32 | 50.03648 | 8.56108 | 369 ft | 11 kts | 69° |
| 2026-05-05 10:33 | 50.03676 | 8.56223 | 366 ft | 11 kts | 71° |
| 2026-05-05 10:33 | 50.03701 | 8.56340 | 366 ft | 12 kts | 71° |
| 2026-05-05 10:33 | 50.03731 | 8.56472 | 366 ft | 15 kts | 70° |
| 2026-05-05 10:33 | 50.03773 | 8.56643 | 361 ft | 18 kts | 68° |
| 2026-05-05 10:34 | 50.03819 | 8.56836 | 362 ft | 20 kts | 70° |
| 2026-05-05 10:34 | 50.03866 | 8.57034 | 364 ft | 20 kts | 70° |
| 2026-05-05 10:34 | 50.03912 | 8.57231 | 367 ft | 20 kts | 69° |
| 2026-05-05 10:34 | 50.03963 | 8.57431 | 366 ft | 20 kts | 69° |
| 2026-05-05 10:35 | 50.04011 | 8.57627 | 366 ft | 20 kts | 70° |
| 2026-05-05 10:35 | 50.04057 | 8.57825 | 361 ft | 20 kts | 70° |
| 2026-05-05 10:35 | 50.04101 | 8.58013 | 362 ft | 16 kts | 70° |
| 2026-05-05 10:35 | 50.04170 | 8.58150 | 359 ft | 18 kts | 32° |
| 2026-05-05 10:36 | 50.04266 | 8.58200 | 335 ft | 11 kts | 358° |
| 2026-05-05 10:36 | 50.04273 | 8.58199 | 336 ft | 0 kts | 355° |
| 2026-05-05 10:38 | 50.04282 | 8.58197 | 336 ft | 6 kts | 350° |
| 2026-05-05 10:38 | 50.04357 | 8.58161 | 334 ft | 13 kts | 340° |
| 2026-05-05 10:39 | 50.04438 | 8.58115 | 336 ft | 12 kts | 340° |
| 2026-05-05 10:39 | 50.04471 | 8.58096 | 341 ft | 0 kts | 340° |
| 2026-05-05 10:41 | 50.04503 | 8.58078 | 351 ft | 13 kts | 340° |
| 2026-05-05 10:41 | 50.04606 | 8.58020 | 356 ft | 16 kts | 340° |
| 2026-05-05 10:41 | 50.04713 | 8.57964 | 359 ft | 16 kts | 353° |
| 2026-05-05 10:42 | 50.04840 | 8.58214 | 359 ft | 15 kts | 70° |
| 2026-05-05 10:42 | 50.04874 | 8.58353 | 360 ft | 12 kts | 69° |
| 2026-05-05 10:42 | 50.04881 | 8.58383 | 358 ft | 0 kts | 70° |
| 2026-05-05 10:43 | 50.04884 | 8.58397 | 357 ft | 5 kts | 70° |
| 2026-05-05 10:43 | 50.04928 | 8.58452 | 359 ft | 10 kts | 8° |
| 2026-05-05 10:44 | 50.04973 | 8.58441 | 362 ft | 6 kts | 341° |
| 2026-05-05 10:44 | 50.04986 | 8.58433 | 366 ft | 0 kts | 341° |